Time;durP1;ratioP1;P1;durP2;ratioP2;P2;SDS_P1;SDS_P2;PMS_P1;PMS_P2;Temp;Humidity;BMP_temperature;BMP_pressure;BME280_temperature;BME280_humidity;BME280_pressure;Samples;Min_cycle;Max_cycle;Signal;HPM_P1;HPM_P2
2020/12/03 00:00:26;;;;;;;35.00;11.67;;;;;;;2.84;100.00;97666.56;5114327;28;20227;-74
2020/12/03 00:02:53;;;;;;;33.83;12.13;;;;;;;3.14;100.00;97665.13;5114308;28;20963;-74
2020/12/03 00:05:19;;;;;;;32.90;11.93;;;;;;;2.87;100.00;97671.53;5114641;28;20200;-74
2020/12/03 00:07:46;;;;;;;28.97;11.53;;;;;;;3.09;100.00;97659.53;5111928;28;20200;-74
2020/12/03 00:10:13;;;;;;;23.87;10.23;;;;;;;2.75;100.00;97656.19;5115419;28;20231;-73
2020/12/03 00:12:40;;;;;;;33.53;11.97;;;;;;;2.70;100.00;97647.94;5114955;28;20214;-73
2020/12/03 00:15:06;;;;;;;28.47;10.60;;;;;;;2.73;100.00;97651.06;5110909;28;20682;-73
2020/12/03 00:17:34;;;;;;;31.77;11.27;;;;;;;2.91;100.00;97638.59;5114850;28;20195;-73
2020/12/03 00:20:15;;;;;;;31.73;11.10;;;;;;;3.21;100.00;97640.59;5112588;28;20215;-73
2020/12/03 00:22:43;;;;;;;35.10;11.63;;;;;;;2.90;100.00;97636.94;5111293;28;20195;-74
2020/12/03 00:25:10;;;;;;;34.57;12.03;;;;;;;2.79;100.00;97639.88;5107983;28;20203;-73
2020/12/03 00:27:37;;;;;;;32.13;11.53;;;;;;;2.84;100.00;97639.41;5107348;28;20202;-74
2020/12/03 00:30:05;;;;;;;32.73;11.43;;;;;;;3.08;100.00;97642.06;5112625;28;20709;-73
2020/12/03 00:32:32;;;;;;;31.20;12.47;;;;;;;3.22;100.00;97628.25;5110081;28;20218;-73
2020/12/03 00:34:59;;;;;;;27.20;11.07;;;;;;;3.17;100.00;97625.28;5113953;28;20619;-73
2020/12/03 00:37:26;;;;;;;31.40;12.27;;;;;;;3.20;100.00;97632.88;5114639;28;20200;-73
2020/12/03 00:39:53;;;;;;;28.20;11.20;;;;;;;3.13;100.00;97630.06;5114589;28;20216;-73
2020/12/03 00:42:20;;;;;;;33.07;11.57;;;;;;;3.29;100.00;97624.78;5113310;28;20200;-73
2020/12/03 00:44:46;;;;;;;34.13;11.77;;;;;;;3.32;100.00;97619.19;5106429;27;20207;-73
2020/12/03 00:47:13;;;;;;;31.10;12.70;;;;;;;2.77;100.00;97618.16;5113858;28;20208;-75
2020/12/03 00:49:40;;;;;;;28.23;12.40;;;;;;;3.14;100.00;97607.13;5114607;27;20230;-75
2020/12/03 00:52:08;;;;;;;29.60;11.23;;;;;;;3.31;100.00;97593.78;5113954;28;20199;-73
2020/12/03 00:54:34;;;;;;;28.17;12.20;;;;;;;3.05;100.00;97605.50;5114051;28;20199;-74
2020/12/03 00:57:01;;;;;;;32.77;12.53;;;;;;;2.88;100.00;97606.47;5113783;28;20204;-74
2020/12/03 00:59:28;;;;;;;32.50;12.00;;;;;;;3.03;100.00;97604.81;5109834;27;20195;-74
2020/12/03 01:01:55;;;;;;;29.47;12.03;;;;;;;3.18;100.00;97604.03;5111223;28;20589;-74
2020/12/03 01:04:21;;;;;;;30.83;11.30;;;;;;;3.35;100.00;97610.94;5112146;28;20200;-75
2020/12/03 01:06:48;;;;;;;31.13;11.27;;;;;;;3.27;100.00;97605.69;5113031;28;20200;-75
2020/12/03 01:09:16;;;;;;;29.13;11.93;;;;;;;3.15;100.00;97608.81;5112336;28;20227;-75
2020/12/03 01:11:43;;;;;;;31.47;12.93;;;;;;;3.41;100.00;97599.72;5113311;28;20224;-75
2020/12/03 01:14:09;;;;;;;36.37;13.30;;;;;;;3.16;100.00;97599.91;5113139;28;20204;-75
2020/12/03 01:16:36;;;;;;;32.93;13.07;;;;;;;2.94;100.00;97605.81;5113319;28;20201;-75
2020/12/03 01:19:03;;;;;;;29.80;12.13;;;;;;;3.17;100.00;97602.38;5110684;28;20204;-75
2020/12/03 01:21:30;;;;;;;32.70;11.67;;;;;;;3.31;100.00;97596.41;5109440;28;20227;-75
2020/12/03 01:23:56;;;;;;;35.17;13.43;;;;;;;3.20;100.00;97593.31;5113598;28;20191;-74
2020/12/03 01:26:24;;;;;;;32.70;12.33;;;;;;;3.02;100.00;97590.00;5112352;28;20200;-75
2020/12/03 01:28:51;;;;;;;32.47;11.40;;;;;;;3.15;100.00;97595.63;5112766;28;20199;-75
2020/12/03 01:31:17;;;;;;;33.03;12.03;;;;;;;3.32;100.00;97590.19;5112177;28;20227;-73
2020/12/03 01:33:44;;;;;;;33.97;11.70;;;;;;;3.40;100.00;97586.72;5113211;28;20204;-73
2020/12/03 01:36:13;;;;;;;31.40;12.53;;;;;;;3.30;100.00;97586.06;5112960;28;20664;-73
2020/12/03 01:38:40;;;;;;;30.40;11.00;;;;;;;3.16;100.00;97584.88;5108985;28;20211;-73
2020/12/03 01:41:07;;;;;;;34.73;12.20;;;;;;;2.97;100.00;97582.59;5112463;28;20227;-73
2020/12/03 01:43:41;;;;;;;34.07;13.73;;;;;;;3.19;100.00;97579.31;5108717;28;20671;-73
2020/12/03 01:46:08;;;;;;;36.07;12.10;;;;;;;3.27;100.00;97568.75;5112417;28;20197;-73
2020/12/03 01:48:43;;;;;;;32.83;11.93;;;;;;;3.16;100.00;97561.16;5109242;28;20208;-73
2020/12/03 01:51:15;;;;;;;31.53;12.10;;;;;;;3.11;100.00;97558.19;5107926;28;20223;-73
2020/12/03 01:53:42;;;;;;;28.87;12.07;;;;;;;3.22;100.00;97557.88;5111749;28;20192;-74
2020/12/03 01:56:48;;;;;;;31.27;11.80;;;;;;;3.23;100.00;97561.34;5107246;28;20204;-74
2020/12/03 01:59:15;;;;;;;31.73;12.03;;;;;;;3.44;100.00;97551.91;5080505;28;20214;-74
2020/12/03 02:01:42;;;;;;;30.07;12.63;;;;;;;3.45;100.00;97556.19;5111918;28;20704;-74
2020/12/03 02:04:09;;;;;;;30.77;12.37;;;;;;;3.29;100.00;97556.22;5112648;28;20208;-74
2020/12/03 02:06:38;;;;;;;41.93;13.87;;;;;;;3.18;100.00;97542.56;5109813;28;20212;-75
2020/12/03 02:09:07;;;;;;;29.40;12.53;;;;;;;2.97;100.00;97539.59;5112694;28;20237;-75
2020/12/03 02:11:34;;;;;;;31.13;12.60;;;;;;;3.38;100.00;97534.13;5112174;28;20588;-74
2020/12/03 02:14:04;;;;;;;27.97;11.67;;;;;;;3.11;100.00;97529.22;5112723;28;20567;-74
2020/12/03 02:16:34;;;;;;;30.50;12.97;;;;;;;2.92;100.00;97537.47;5107839;28;20207;-73
2020/12/03 02:19:01;;;;;;;40.47;13.70;;;;;;;2.89;100.00;97531.72;5112496;28;20675;-73
2020/12/03 02:21:29;;;;;;;35.30;12.83;;;;;;;3.20;100.00;97520.31;5110531;28;20223;-73
2020/12/03 02:23:55;;;;;;;32.67;12.27;;;;;;;2.82;100.00;97514.91;5111506;28;20196;-73
2020/12/03 02:26:22;;;;;;;28.13;10.83;;;;;;;3.11;100.00;97509.94;5112209;28;20204;-73
2020/12/03 02:28:49;;;;;;;28.67;11.63;;;;;;;3.13;100.00;97508.78;5111160;28;20196;-73
2020/12/03 02:31:18;;;;;;;34.23;12.13;;;;;;;3.21;100.00;97502.69;5111160;28;20223;-73
2020/12/03 02:33:44;;;;;;;36.47;13.40;;;;;;;3.02;100.00;97506.50;5109934;28;20207;-73
2020/12/03 02:36:32;;;;;;;36.60;12.77;;;;;;;3.03;100.00;97502.88;5111307;28;20210;-73
2020/12/03 02:44:25;;;;;;;34.50;13.30;;;;;;;3.01;100.00;97504.84;5111905;28;20215;-73
2020/12/03 02:46:53;;;;;;;31.00;11.73;;;;;;;2.79;100.00;97494.16;5111121;28;20200;-73
2020/12/03 02:49:19;;;;;;;33.77;12.63;;;;;;;3.22;100.00;97499.06;5106215;28;20220;-73
2020/12/03 02:51:47;;;;;;;28.23;11.90;;;;;;;3.15;100.00;97490.97;5111715;28;20243;-74
2020/12/03 02:54:14;;;;;;;31.23;12.90;;;;;;;2.78;100.00;97493.34;5112008;28;20207;-74
2020/12/03 02:59:49;;;;;;;34.17;12.47;;;;;;;3.14;100.00;97499.88;5100732;28;20196;-74
2020/12/03 03:02:16;;;;;;;41.80;13.80;;;;;;;3.19;100.00;97494.94;5093724;28;20575;-74
2020/12/03 03:04:59;;;;;;;30.20;13.00;;;;;;;3.15;100.00;97495.44;5108968;28;20219;-74
2020/12/03 03:07:45;;;;;;;34.40;12.83;;;;;;;3.17;100.00;97498.72;5101644;28;20226;-74
2020/12/03 03:10:14;;;;;;;33.20;12.70;;;;;;;3.20;100.00;97493.94;5107040;28;20707;-74
2020/12/03 03:15:43;;;;;;;35.10;13.10;;;;;;;3.05;100.00;97492.16;5095087;28;20203;-74
2020/12/03 03:18:26;;;;;;;30.53;12.97;;;;;;;3.29;100.00;97490.31;5111186;28;20249;-74
2020/12/03 03:20:53;;;;;;;37.60;15.73;;;;;;;2.75;100.00;97487.56;5097958;28;20226;-74
2020/12/03 03:26:07;;;;;;;33.73;15.20;;;;;;;3.29;100.00;97481.56;5066671;28;20728;-74
2020/12/03 03:28:34;;;;;;;40.37;14.60;;;;;;;3.43;100.00;97486.97;5108701;28;20575;-74
2020/12/03 03:31:01;;;;;;;41.17;14.97;;;;;;;3.20;100.00;97487.88;5110954;28;20228;-74
2020/12/03 03:33:27;;;;;;;35.97;14.33;;;;;;;3.22;100.00;97486.72;5104223;28;20246;-74
2020/12/03 03:35:54;;;;;;;37.77;14.67;;;;;;;3.08;100.00;97492.66;5113350;28;20698;-75
2020/12/03 03:38:22;;;;;;;40.10;14.50;;;;;;;2.82;100.00;97480.66;5113521;28;20212;-74
2020/12/03 03:40:48;;;;;;;35.73;14.67;;;;;;;2.97;100.00;97476.34;5115508;28;20227;-74
2020/12/03 03:43:15;;;;;;;35.40;15.10;;;;;;;2.96;100.00;97470.25;5115425;28;20206;-74
2020/12/03 03:45:42;;;;;;;38.07;14.30;;;;;;;2.86;100.00;97477.53;5114683;28;20200;-74
2020/12/03 03:48:25;;;;;;;38.73;14.43;;;;;;;2.94;100.00;97477.50;5108997;28;20223;-74
2020/12/03 03:50:51;;;;;;;34.40;14.23;;;;;;;3.26;100.00;97466.91;5101737;28;20235;-74
2020/12/03 03:53:18;;;;;;;34.10;13.87;;;;;;;3.25;100.00;97469.72;5115370;28;20210;-74
2020/12/03 03:55:46;;;;;;;39.23;14.73;;;;;;;3.26;100.00;97466.91;5114819;27;20659;-74
2020/12/03 03:58:12;;;;;;;41.87;14.80;;;;;;;3.07;100.00;97467.28;5115123;28;20671;-74
2020/12/03 04:00:41;;;;;;;36.70;15.03;;;;;;;3.29;100.00;97466.56;5109810;28;20715;-74
2020/12/03 04:03:12;;;;;;;39.47;14.60;;;;;;;3.24;100.00;97462.78;5110800;28;20216;-75
2020/12/03 04:05:39;;;;;;;36.10;14.57;;;;;;;3.10;100.00;97464.31;5110776;28;20199;-74
2020/12/03 04:08:06;;;;;;;30.03;14.43;;;;;;;3.16;100.00;97466.25;5115181;28;20249;-74
2020/12/03 04:10:33;;;;;;;35.10;13.80;;;;;;;3.18;100.00;97464.31;5114253;28;20231;-75
2020/12/03 04:13:01;;;;;;;34.97;14.40;;;;;;;3.39;100.00;97455.81;5114724;28;20204;-74
2020/12/03 04:15:27;;;;;;;39.60;13.83;;;;;;;3.28;100.00;97458.81;5111698;27;20204;-72
2020/12/03 04:17:54;;;;;;;33.07;13.30;;;;;;;3.09;100.00;97456.56;5115010;28;20208;-74
2020/12/03 04:20:21;;;;;;;36.10;13.27;;;;;;;3.21;100.00;97448.13;5114722;28;20231;-75
2020/12/03 04:22:48;;;;;;;37.97;14.40;;;;;;;3.34;100.00;97452.88;5109428;28;20206;-74
2020/12/03 04:25:14;;;;;;;35.77;14.57;;;;;;;3.39;100.00;97448.75;5114167;28;20575;-74
2020/12/03 04:27:41;;;;;;;31.90;13.13;;;;;;;3.42;100.00;97448.41;5114701;28;20236;-74
2020/12/03 04:30:10;;;;;;;33.07;13.63;;;;;;;3.09;100.00;97438.94;5109825;28;20238;-74
2020/12/03 04:32:38;;;;;;;28.30;12.10;;;;;;;3.28;100.00;97441.22;5107373;28;20215;-75
2020/12/03 04:35:05;;;;;;;34.17;13.77;;;;;;;3.26;100.00;97440.53;5114103;28;20223;-73
2020/12/03 04:37:32;;;;;;;32.03;13.67;;;;;;;3.29;100.00;97434.94;5114457;28;20203;-73
2020/12/03 04:39:59;;;;;;;38.33;14.17;;;;;;;3.38;100.00;97441.84;5111724;28;20227;-75
2020/12/03 04:42:28;;;;;;;33.30;12.93;;;;;;;3.29;100.00;97436.75;5114573;28;20227;-72
2020/12/03 04:44:58;;;;;;;35.17;13.07;;;;;;;3.46;100.00;97446.25;5109557;28;20210;-74
2020/12/03 04:47:41;;;;;;;29.83;13.83;;;;;;;3.45;100.00;97431.44;5108794;28;20204;-72
2020/12/03 04:50:12;;;;;;;32.40;13.70;;;;;;;3.39;100.00;97427.66;5111520;28;20239;-73
2020/12/03 04:53:00;;;;;;;31.30;13.60;;;;;;;3.31;100.00;97422.41;5113042;28;20207;-73
2020/12/03 04:55:31;;;;;;;33.63;12.37;;;;;;;3.31;100.00;97427.66;5109816;28;20200;-73
2020/12/03 04:58:04;;;;;;;29.57;12.40;;;;;;;3.35;100.00;97430.81;5109389;28;20213;-73
2020/12/03 05:00:45;;;;;;;30.80;12.70;;;;;;;3.49;100.00;97425.63;5111190;28;20280;-73
2020/12/03 05:03:27;;;;;;;31.80;12.40;;;;;;;3.42;100.00;97422.03;5114053;28;20628;-74
2020/12/03 05:06:04;;;;;;;29.73;12.23;;;;;;;3.44;100.00;97425.31;5112404;28;20671;-74
2020/12/03 05:08:35;;;;;;;32.50;12.43;;;;;;;3.49;100.00;97422.16;5112929;28;20247;-75
2020/12/03 05:11:07;;;;;;;27.47;12.17;;;;;;;3.64;100.00;97412.53;5112594;28;20695;-74
2020/12/03 05:13:43;;;;;;;30.00;11.93;;;;;;;3.53;100.00;97412.91;5099926;28;20211;-75
2020/12/03 05:16:16;;;;;;;26.00;11.40;;;;;;;3.49;100.00;97408.97;5108276;28;20204;-75
2020/12/03 05:18:52;;;;;;;28.40;11.07;;;;;;;3.64;100.00;97408.09;5108829;28;20204;-76
2020/12/03 05:21:22;;;;;;;27.83;11.90;;;;;;;3.46;100.00;97406.69;5112163;28;20227;-76
2020/12/03 05:23:48;;;;;;;31.63;11.57;;;;;;;3.68;100.00;97395.38;5112635;28;20290;-76
2020/12/03 05:26:18;;;;;;;25.93;12.13;;;;;;;3.70;100.00;97398.66;5106538;28;20200;-74
2020/12/03 05:28:54;;;;;;;25.27;11.27;;;;;;;3.71;100.00;97385.28;5106464;28;20684;-75
2020/12/03 05:31:27;;;;;;;26.20;11.30;;;;;;;3.69;100.00;97384.66;5111711;28;20227;-76
2020/12/03 05:33:58;;;;;;;23.43;10.37;;;;;;;3.79;100.00;97387.06;5107467;28;20203;-76
2020/12/03 05:36:29;;;;;;;22.80;9.63;;;;;;;3.84;100.00;97380.28;5109623;28;20657;-75
2020/12/03 05:38:57;;;;;;;22.30;10.57;;;;;;;3.66;100.00;97379.72;5111514;28;20223;-75
2020/12/03 05:41:25;;;;;;;21.97;8.73;;;;;;;3.87;100.00;97372.00;5111881;28;20234;-75
2020/12/03 05:43:52;;;;;;;22.77;10.00;;;;;;;3.91;100.00;97375.13;5112264;28;20219;-75
2020/12/03 05:46:22;;;;;;;25.03;9.97;;;;;;;3.94;100.00;97362.41;5108602;28;20210;-73
2020/12/03 05:48:57;;;;;;;19.20;9.80;;;;;;;3.77;100.00;97368.75;5113064;28;20249;-76
2020/12/03 05:51:27;;;;;;;21.43;8.20;;;;;;;3.88;100.00;97360.47;5109110;28;20671;-74
2020/12/03 05:53:55;;;;;;;21.10;9.17;;;;;;;3.86;100.00;97354.53;5108508;28;20587;-74
2020/12/03 05:56:24;;;;;;;20.53;8.73;;;;;;;3.93;100.00;97355.47;5108828;28;20295;-74
2020/12/03 05:58:51;;;;;;;19.20;8.87;;;;;;;3.93;100.00;97350.19;5110524;28;20639;-74
2020/12/03 06:01:19;;;;;;;14.83;7.13;;;;;;;3.93;100.00;97349.38;5111411;28;20224;-74
2020/12/03 06:04:05;;;;;;;19.33;8.20;;;;;;;3.88;100.00;97342.00;5111268;28;20204;-74
2020/12/03 06:07:03;;;;;;;18.80;8.10;;;;;;;3.96;100.00;97349.03;5112198;27;20207;-74
2020/12/03 06:09:49;;;;;;;20.10;9.03;;;;;;;4.01;100.00;97344.84;5109991;28;20208;-74
2020/12/03 06:12:26;;;;;;;13.33;7.20;;;;;;;4.05;100.00;97348.78;5111972;28;20214;-75
2020/12/03 06:15:14;;;;;;;15.83;6.97;;;;;;;3.90;100.00;97345.25;5110874;28;20583;-74
2020/12/03 06:17:51;;;;;;;14.63;6.83;;;;;;;3.92;100.00;97342.47;5112576;28;20569;-74
2020/12/03 06:20:49;;;;;;;13.83;6.30;;;;;;;4.01;100.00;97338.75;5107971;28;20314;-74
2020/12/03 06:23:41;;;;;;;11.47;6.17;;;;;;;4.07;100.00;97352.06;5100229;28;20208;-74
2020/12/03 06:26:16;;;;;;;13.00;6.37;;;;;;;3.78;100.00;97341.41;5114592;28;20204;-74
2020/12/03 06:29:00;;;;;;;13.60;5.77;;;;;;;3.88;100.00;97349.06;5111438;28;20203;-78
2020/12/03 06:31:30;;;;;;;10.63;5.67;;;;;;;3.98;100.00;97350.50;5112125;28;20221;-75
2020/12/03 06:34:00;;;;;;;12.40;5.87;;;;;;;3.86;100.00;97346.59;5111697;28;20199;-76
2020/12/03 06:36:39;;;;;;;13.43;6.57;;;;;;;4.16;100.00;97339.63;5115315;28;20208;-76
2020/12/03 06:39:24;;;;;;;12.87;5.73;;;;;;;3.97;100.00;97342.75;5114203;28;20193;-76
2020/12/03 06:41:55;;;;;;;15.77;7.23;;;;;;;3.83;100.00;97349.63;5110240;28;20615;-78
2020/12/03 06:44:25;;;;;;;12.97;6.43;;;;;;;4.27;100.00;97341.84;5112488;28;20204;-80
2020/12/03 06:47:37;;;;;;;15.00;6.70;;;;;;;4.14;100.00;97342.44;5112077;28;20605;-76
2020/12/03 06:50:48;;;;;;;11.20;6.00;;;;;;;4.34;100.00;97343.59;5113932;27;20234;-78
2020/12/03 06:53:53;;;;;;;15.20;6.53;;;;;;;4.52;100.00;97336.16;5027705;28;20613;-73
2020/12/03 06:56:47;;;;;;;18.00;7.57;;;;;;;4.40;100.00;97334.13;5005363;28;20219;-74
2020/12/03 06:59:37;;;;;;;11.77;6.10;;;;;;;4.31;100.00;97340.50;5100509;28;20210;-73
2020/12/03 07:02:30;;;;;;;14.13;7.03;;;;;;;4.06;100.00;97331.94;5108173;28;20749;-72
2020/12/03 07:05:24;;;;;;;12.57;6.83;;;;;;;4.21;100.00;97340.72;5108122;28;20575;-72
2020/12/03 07:08:14;;;;;;;15.40;6.63;;;;;;;4.12;100.00;97333.06;5104093;28;20204;-75
2020/12/03 07:11:16;;;;;;;14.30;6.40;;;;;;;4.17;100.00;97336.00;5106874;28;20254;-74
2020/12/03 07:14:43;;;;;;;16.13;7.60;;;;;;;3.98;100.00;97324.09;5109769;28;20211;-75
2020/12/03 07:17:49;;;;;;;13.27;6.47;;;;;;;4.17;100.00;97325.44;5113434;28;20205;-79
2020/12/03 07:20:53;;;;;;;11.60;6.23;;;;;;;4.27;100.00;97316.25;5089031;28;20226;-79
2020/12/03 07:23:33;;;;;;;12.80;6.60;;;;;;;4.29;100.00;97310.78;5106964;28;20210;-74
2020/12/03 07:26:03;;;;;;;13.43;6.60;;;;;;;4.32;100.00;97311.25;5111912;28;20205;-74
2020/12/03 07:28:36;;;;;;;11.80;6.17;;;;;;;4.35;100.00;97313.56;5111245;28;20208;-75
2020/12/03 07:31:07;;;;;;;12.00;6.00;;;;;;;4.38;100.00;97317.66;5110737;28;20247;-74
2020/12/03 07:33:39;;;;;;;13.67;6.50;;;;;;;4.35;100.00;97321.47;5110726;28;20216;-74
2020/12/03 07:36:36;;;;;;;13.10;6.03;;;;;;;4.43;100.00;97312.66;5111129;28;20204;-75
2020/12/03 07:39:07;;;;;;;12.83;6.73;;;;;;;4.27;100.00;97310.97;5111112;28;20207;-74
2020/12/03 07:41:39;;;;;;;12.13;5.80;;;;;;;4.46;100.00;97310.47;5111991;28;20586;-74
2020/12/03 07:44:17;;;;;;;11.87;6.37;;;;;;;4.43;100.00;97312.66;5112465;28;20201;-73
2020/12/03 07:46:45;;;;;;;10.20;5.77;;;;;;;4.54;100.00;97310.41;5109371;28;20212;-73
2020/12/03 07:49:12;;;;;;;13.27;6.60;;;;;;;4.56;100.00;97307.56;5121439;28;20201;-74
2020/12/03 07:51:39;;;;;;;11.13;5.50;;;;;;;4.51;100.00;97308.09;5119572;28;20687;-73
2020/12/03 07:54:25;;;;;;;13.50;6.70;;;;;;;4.59;100.00;97294.84;5114665;28;20214;-76
2020/12/03 07:56:52;;;;;;;10.97;6.20;;;;;;;4.39;100.00;97291.06;5110647;28;20202;-76
2020/12/03 07:59:37;;;;;;;13.13;6.67;;;;;;;4.35;100.00;97284.50;5112231;28;20199;-75
2020/12/03 08:02:20;;;;;;;10.90;5.80;;;;;;;4.44;100.00;97282.59;5112575;28;20724;-76
2020/12/03 08:04:46;;;;;;;11.40;5.87;;;;;;;4.53;100.00;97284.97;5112128;28;20200;-76
2020/12/03 08:07:31;;;;;;;11.67;5.37;;;;;;;4.84;100.00;97276.88;5110986;28;20197;-76
2020/12/03 08:09:58;;;;;;;10.53;5.47;;;;;;;4.89;100.00;97270.06;5110779;28;20578;-76
2020/12/03 08:12:28;;;;;;;9.00;4.53;;;;;;;4.70;100.00;97277.69;5110689;28;20217;-76
2020/12/03 08:14:56;;;;;;;10.50;5.10;;;;;;;4.76;100.00;97269.03;5109923;28;20228;-76
2020/12/03 08:17:45;;;;;;;11.43;4.60;;;;;;;4.94;100.00;97272.97;5111178;28;20208;-75
2020/12/03 08:20:23;;;;;;;9.33;4.67;;;;;;;4.76;100.00;97263.75;5112928;28;20226;-75
2020/12/03 08:22:53;;;;;;;6.47;3.57;;;;;;;5.00;96.88;97256.34;5113035;28;20201;-74
2020/12/03 08:25:23;;;;;;;7.00;3.80;;;;;;;5.11;96.13;97255.03;5114805;28;20193;-76
2020/12/03 08:28:00;;;;;;;7.20;3.43;;;;;;;5.19;98.12;97254.94;5114253;28;20291;-76
2020/12/03 08:30:37;;;;;;;7.87;3.70;;;;;;;5.19;96.23;97253.09;5107756;28;20618;-75
2020/12/03 08:33:11;;;;;;;6.40;3.70;;;;;;;5.23;96.88;97246.44;5103841;28;20727;-75
2020/12/03 08:35:39;;;;;;;10.60;4.27;;;;;;;5.00;99.54;97244.94;5113387;28;20870;-76
2020/12/03 08:38:06;;;;;;;8.63;4.47;;;;;;;5.20;98.00;97238.06;5111901;28;20231;-74
2020/12/03 08:40:35;;;;;;;7.97;4.37;;;;;;;4.98;100.00;97236.41;5108255;28;20311;-74
2020/12/03 08:43:09;;;;;;;10.47;4.40;;;;;;;5.12;100.00;97228.41;5113441;28;20235;-74
2020/12/03 08:45:48;;;;;;;9.93;4.90;;;;;;;5.14;99.87;97226.41;5110726;28;20189;-74
2020/12/03 08:48:18;;;;;;;7.30;4.40;;;;;;;5.28;97.51;97220.25;5113659;28;20269;-74
2020/12/03 08:50:45;;;;;;;9.03;4.80;;;;;;;4.89;100.00;97217.19;5116291;27;20228;-75
2020/12/03 08:53:12;;;;;;;8.83;4.47;;;;;;;4.78;100.00;97211.53;5114951;28;20633;-72
2020/12/03 08:55:40;;;;;;;9.43;4.83;;;;;;;4.93;100.00;97222.91;5114817;27;20239;-73
2020/12/03 08:58:08;;;;;;;8.83;4.70;;;;;;;4.94;100.00;97225.38;5115329;28;20196;-72
2020/12/03 09:00:40;;;;;;;9.90;5.70;;;;;;;4.69;100.00;97216.09;5115277;28;20246;-73
2020/12/03 09:03:10;;;;;;;11.27;5.50;;;;;;;4.73;100.00;97222.63;5110215;28;20192;-74
2020/12/03 09:05:38;;;;;;;9.57;4.97;;;;;;;4.55;100.00;97219.56;5107027;28;20572;-73
2020/12/03 09:08:05;;;;;;;9.00;5.03;;;;;;;4.56;100.00;97213.28;5114244;28;20202;-73
2020/12/03 09:10:33;;;;;;;10.73;5.23;;;;;;;4.71;100.00;97207.97;5114139;28;20219;-72
2020/12/03 09:13:00;;;;;;;10.23;6.07;;;;;;;4.43;100.00;97207.00;5117343;28;20201;-70
2020/12/03 09:15:28;;;;;;;10.87;5.70;;;;;;;5.04;100.00;97199.47;5112135;28;20553;-74
2020/12/03 09:17:58;;;;;;;10.10;5.83;;;;;;;4.83;100.00;97185.38;5113321;28;20212;-72
2020/12/03 09:20:25;;;;;;;13.73;6.93;;;;;;;5.33;100.00;97188.78;5118316;27;20216;-73
2020/12/03 09:22:52;;;;;;;14.57;6.57;;;;;;;4.85;100.00;97183.34;5114980;28;20204;-73
2020/12/03 09:25:19;;;;;;;13.07;6.33;;;;;;;5.17;100.00;97183.72;5113810;28;20241;-73
2020/12/03 09:27:47;;;;;;;11.60;6.47;;;;;;;5.22;100.00;97189.28;5115429;28;20212;-73
2020/12/03 09:30:18;;;;;;;12.33;6.13;;;;;;;5.20;100.00;97182.53;5115225;28;20225;-73
2020/12/03 09:32:48;;;;;;;12.23;6.37;;;;;;;4.98;100.00;97178.22;5114511;28;20228;-73
2020/12/03 09:35:16;;;;;;;10.40;5.77;;;;;;;4.99;100.00;97172.78;5111844;28;20565;-74
2020/12/03 09:37:43;;;;;;;13.10;6.30;;;;;;;5.53;100.00;97175.75;5113320;28;20208;-74
2020/12/03 09:40:10;;;;;;;12.33;6.10;;;;;;;4.62;100.00;97175.56;5113489;28;20235;-74
2020/12/03 09:42:44;;;;;;;12.77;6.10;;;;;;;4.58;100.00;97163.69;5114334;27;20196;-74
2020/12/03 09:45:13;;;;;;;10.03;5.70;;;;;;;5.31;100.00;97145.00;5116675;28;20210;-73
2020/12/03 09:47:41;;;;;;;12.00;6.10;;;;;;;5.92;100.00;97144.31;5112016;28;20202;-74
2020/12/03 09:50:08;;;;;;;11.07;6.13;;;;;;;5.90;100.00;97138.41;5108869;28;20234;-74
2020/12/03 09:52:36;;;;;;;11.63;5.60;;;;;;;5.23;100.00;97134.56;5113063;28;20210;-74
2020/12/03 09:55:11;;;;;;;11.80;5.57;;;;;;;5.94;97.82;97134.38;5113732;28;20612;-74
2020/12/03 09:57:38;;;;;;;11.30;6.00;;;;;;;5.74;98.87;97136.03;5110223;28;20200;-74
2020/12/03 10:00:07;;;;;;;8.90;5.17;;;;;;;6.18;94.01;97134.75;5109480;28;20229;-74
2020/12/03 10:03:03;;;;;;;11.00;5.67;;;;;;;5.98;95.45;97120.56;5107652;28;20206;-74
2020/12/03 10:05:40;;;;;;;9.83;5.63;;;;;;;5.96;93.90;97105.88;5106781;28;20201;-73
2020/12/03 10:08:30;;;;;;;12.13;6.80;;;;;;;5.77;98.63;97107.34;5110865;28;20197;-73
2020/12/03 10:11:09;;;;;;;9.33;5.43;;;;;;;5.85;95.83;97101.91;5112624;28;20226;-73
2020/12/03 10:14:06;;;;;;;10.10;5.80;;;;;;;5.62;96.39;97103.16;5110998;28;20536;-72
2020/12/03 10:16:35;;;;;;;11.23;5.90;;;;;;;5.70;97.81;97092.44;5107388;28;20197;-73
2020/12/03 10:19:05;;;;;;;10.53;6.13;;;;;;;5.97;96.38;97084.50;5110134;28;20206;-72
2020/12/03 10:21:35;;;;;;;10.70;5.47;;;;;;;5.40;100.00;97077.75;5111706;28;20307;-73
2020/12/03 10:24:04;;;;;;;10.73;5.67;;;;;;;5.88;95.47;97079.53;5113041;28;20216;-73
2020/12/03 10:26:39;;;;;;;13.07;5.50;;;;;;;5.37;97.53;97067.53;5112824;28;20208;-75
2020/12/03 10:29:29;;;;;;;9.90;5.10;;;;;;;6.03;91.25;97064.34;5111636;28;20229;-74
2020/12/03 10:31:57;;;;;;;11.77;5.83;;;;;;;5.65;93.63;97052.50;5113369;28;20237;-72
2020/12/03 10:34:24;;;;;;;8.60;5.10;;;;;;;5.63;92.92;97052.69;5112590;28;20218;-74
2020/12/03 10:36:54;;;;;;;8.77;4.83;;;;;;;5.20;96.00;97037.09;5113286;27;20204;-75
2020/12/03 10:39:21;;;;;;;7.77;4.63;;;;;;;4.97;98.26;97036.50;5112692;28;20209;-72
2020/12/03 10:41:53;;;;;;;11.37;4.83;;;;;;;5.10;96.87;97033.94;5111983;28;20228;-77
2020/12/03 10:44:21;;;;;;;9.67;5.40;;;;;;;5.54;91.96;97037.16;5113327;28;20204;-73
2020/12/03 10:46:51;;;;;;;10.17;4.83;;;;;;;5.30;93.19;97030.47;5112823;28;20254;-73
2020/12/03 10:49:21;;;;;;;9.83;5.33;;;;;;;5.76;94.50;97046.66;5113917;28;20235;-74
2020/12/03 10:51:48;;;;;;;10.00;5.10;;;;;;;5.91;88.51;97048.22;5113579;28;20225;-74
2020/12/03 10:54:18;;;;;;;8.50;4.47;;;;;;;5.94;86.44;97044.38;5110474;28;20233;-74
2020/12/03 10:56:48;;;;;;;7.47;4.00;;;;;;;6.24;86.35;97037.78;5113114;28;20205;-73
2020/12/03 10:59:36;;;;;;;5.83;4.13;;;;;;;5.91;91.46;97036.78;5113974;28;20228;-73
2020/12/03 11:02:03;;;;;;;9.30;5.13;;;;;;;6.28;86.85;97039.00;5112527;28;20247;-76
2020/12/03 11:04:31;;;;;;;10.67;5.43;;;;;;;6.13;84.18;97035.69;5110866;28;20208;-73
2020/12/03 11:07:07;;;;;;;10.77;4.83;;;;;;;6.23;84.53;97033.47;5105111;28;20199;-73
2020/12/03 11:09:35;;;;;;;9.03;4.47;;;;;;;5.86;89.58;97029.44;5106172;28;20407;-73
2020/12/03 11:12:04;;;;;;;8.50;4.30;;;;;;;6.18;85.88;97030.59;5110081;28;20593;-73
2020/12/03 11:14:33;;;;;;;8.47;4.20;;;;;;;5.78;87.27;97031.41;5109689;28;20202;-73
2020/12/03 11:17:07;;;;;;;9.43;4.80;;;;;;;6.24;84.62;97011.31;5111716;28;20197;-73
2020/12/03 11:19:34;;;;;;;8.90;4.87;;;;;;;6.21;82.97;97023.09;5109056;28;20230;-73
2020/12/03 11:22:17;;;;;;;9.70;4.77;;;;;;;5.92;86.72;97002.19;5109857;28;20198;-75
2020/12/03 11:24:48;;;;;;;9.17;4.97;;;;;;;6.10;87.20;96999.81;5111342;28;20218;-72
2020/12/03 11:27:18;;;;;;;10.93;5.50;;;;;;;6.03;86.41;96996.31;5113687;28;20209;-73
2020/12/03 11:29:46;;;;;;;8.67;5.13;;;;;;;6.24;83.76;97008.66;5109869;28;20209;-74
2020/12/03 11:32:21;;;;;;;9.73;5.27;;;;;;;6.29;81.78;96993.78;5111564;28;20233;-73
2020/12/03 11:34:48;;;;;;;7.97;4.20;;;;;;;6.35;80.08;96992.97;5106224;28;20263;-73
2020/12/03 11:37:20;;;;;;;12.13;5.43;;;;;;;6.49;80.00;96988.56;5111196;28;20219;-72
2020/12/03 11:39:48;;;;;;;8.83;4.77;;;;;;;6.07;81.69;96980.84;5110657;28;20199;-75
2020/12/03 11:42:28;;;;;;;10.13;5.07;;;;;;;6.19;83.03;96972.13;5111370;28;20211;-75
2020/12/03 11:48:14;;;;;;;9.77;4.67;;;;;;;5.97;86.74;96952.09;5109771;28;20209;-74
2020/12/03 11:50:40;;;;;;;9.57;4.43;;;;;;;6.40;83.61;96942.84;5105553;28;20690;-72
2020/12/03 11:53:07;;;;;;;8.10;4.67;;;;;;;6.23;83.84;96941.59;5104482;28;20214;-74
2020/12/03 11:55:39;;;;;;;9.00;4.43;;;;;;;6.28;81.66;96941.81;5114308;28;20225;-73
2020/12/03 11:58:07;;;;;;;8.40;4.90;;;;;;;5.99;85.21;96931.53;5116160;28;20602;-75
2020/12/03 12:00:34;;;;;;;9.10;4.63;;;;;;;6.06;85.98;96926.25;5116347;28;20233;-73
2020/12/03 12:03:04;;;;;;;10.73;4.23;;;;;;;6.53;83.24;96929.63;5114527;28;20535;-71
2020/12/03 12:05:43;;;;;;;6.47;3.93;;;;;;;6.31;81.78;96920.22;5115265;28;20211;-71